DNKN/KAN METAR and TAF weather

Enter ICAO airport designator
Station Type Date Time Source
DNKN METAR 2020/08/11 18:00 UTC NOAA

DNKN 111800Z 21007KT 9999 FEW021CB 27/21 Q1015 NOSIG


Station Type Date Time Source
DNKN Decoded METAR 2020/08/11 18:00 UTC NOAA

Kano, Nigeria (DNKN) 12-03N 008-32E 481M
Aug 11, 2020 - 02:00 PM EDT / 2020.08.11 1800 UTC
Wind: from the SSW (210 degrees) at 8 MPH (7 KT):0
Visibility: greater than 7 mile(s):0
Sky conditions: mostly clear
Weather: Cumulonimbus clouds observed
Temperature: 80 F (27 C)
Dew Point: 69 F (21 C)
Relative Humidity: 69%
Pressure (altimeter): 29.97 in. Hg (1015 hPa)
ob: DNKN 111800Z 21007KT 9999 FEW021CB 27/21 Q1015 NOSIG
cycle: 18

Station Type Date Time Source
DNKN TAF 2020/08/11 18:21 UTC NOAA

TAF DNKN 111700Z 1118/1224 22008KT 9999 TS SCT012 FEW020CB
BECMG 1122/1124 CAVOK

Example: see airport list